createdAt,value
2022-10-19T00:04:21.675Z,30.83
2022-10-19T00:09:16.840Z,29.57
2022-10-19T00:14:14.380Z,29.83
2022-10-19T00:19:18.986Z,54.30
2022-10-19T00:24:11.910Z,44.83
2022-10-19T00:29:05.925Z,35.03
2022-10-19T00:33:58.979Z,33.20
2022-10-19T00:38:52.796Z,37.50
2022-10-19T00:44:19.163Z,42.10
2022-10-19T00:49:16.548Z,37.83
2022-10-19T00:54:10.437Z,38.80
2022-10-19T00:59:06.196Z,35.27
2022-10-19T01:03:58.996Z,39.97
2022-10-19T01:08:51.463Z,31.20
2022-10-19T01:14:15.220Z,44.10
2022-10-19T01:19:20.520Z,31.97
2022-10-19T01:24:39.888Z,29.83
2022-10-19T01:29:55.215Z,31.80
2022-10-19T01:35:06.517Z,35.13
2022-10-19T01:46:03.481Z,26.50
2022-10-19T01:51:06.648Z,33.17
2022-10-19T01:56:01.301Z,30.10
2022-10-19T02:00:56.065Z,28.87
2022-10-19T02:05:51.607Z,30.10
2022-10-19T02:10:46.058Z,27.37
2022-10-19T02:16:11.119Z,26.50
2022-10-19T02:21:05.701Z,30.27
2022-10-19T02:25:59.775Z,29.13
2022-10-19T02:30:53.095Z,30.47
2022-10-19T02:35:47.552Z,33.73
2022-10-19T02:40:45.392Z,29.43
2022-10-19T02:45:46.721Z,25.20
2022-10-19T02:50:43.937Z,27.73
2022-10-19T02:55:36.421Z,24.27
2022-10-19T03:00:28.910Z,24.67
2022-10-19T03:05:21.489Z,23.50
2022-10-19T03:10:13.945Z,26.57
2022-10-19T03:15:08.232Z,23.50
2022-10-19T03:20:00.651Z,15.87
2022-10-19T03:24:53.161Z,17.53
2022-10-19T03:29:45.611Z,19.80
2022-10-19T03:34:38.015Z,22.77
2022-10-19T03:39:30.791Z,22.03
2022-10-19T03:44:23.867Z,19.67
2022-10-19T03:49:16.612Z,21.63
2022-10-19T03:54:13.770Z,20.57
2022-10-19T03:59:06.772Z,20.57
2022-10-19T04:04:05.812Z,19.97
2022-10-19T04:08:58.520Z,19.93
2022-10-19T04:13:52.466Z,20.10
2022-10-19T04:18:44.962Z,19.60
2022-10-19T04:23:39.349Z,18.87
2022-10-19T04:28:32.694Z,24.10
2022-10-19T04:33:25.214Z,20.37
2022-10-19T04:38:17.463Z,22.20
2022-10-19T04:43:10.042Z,28.07
2022-10-19T04:48:02.697Z,24.07
2022-10-19T04:52:55.877Z,18.17
2022-10-19T04:57:48.481Z,20.73
2022-10-19T05:02:47.307Z,17.30
2022-10-19T05:07:39.832Z,16.20
2022-10-19T05:12:32.293Z,18.17
2022-10-19T05:17:24.832Z,20.60
2022-10-19T05:22:17.431Z,18.47
2022-10-19T05:27:10.053Z,21.97
2022-10-19T05:32:02.739Z,18.97
2022-10-19T05:43:00.909Z,21.37
2022-10-19T05:53:34.084Z,21.53
2022-10-19T05:58:27.019Z,19.37
2022-10-19T06:03:20.483Z,20.63
2022-10-19T06:08:13.017Z,18.33
2022-10-19T06:13:05.484Z,21.40
2022-10-19T06:17:58.546Z,20.00
2022-10-19T06:22:51.141Z,18.63
2022-10-19T06:28:08.243Z,17.17
2022-10-19T06:34:00.296Z,17.93
2022-10-19T06:38:53.562Z,15.77
2022-10-19T06:43:53.506Z,15.37
2022-10-19T06:48:51.889Z,12.80
2022-10-19T06:53:44.952Z,19.30
2022-10-19T07:03:46.999Z,14.17
2022-10-19T07:08:41.743Z,16.10
2022-10-19T07:13:34.930Z,14.57
2022-10-19T07:18:28.922Z,9.00
2022-10-19T07:23:21.452Z,11.43
2022-10-19T07:28:14.023Z,8.93
2022-10-19T07:33:07.155Z,8.77
2022-10-19T07:38:00.420Z,6.17
2022-10-19T07:42:53.169Z,11.30
2022-10-19T07:47:45.787Z,9.17
2022-10-19T07:52:38.578Z,7.63
2022-10-19T07:57:31.319Z,8.13
2022-10-19T08:02:30.763Z,5.70
2022-10-19T08:07:34.358Z,7.53
2022-10-19T08:12:27.972Z,8.80
2022-10-19T08:17:22.597Z,7.47
2022-10-19T08:22:17.104Z,7.83
2022-10-19T08:27:09.571Z,6.80
2022-10-19T08:32:01.962Z,4.73
2022-10-19T08:36:54.478Z,4.43
2022-10-19T08:42:13.392Z,5.03
2022-10-19T08:47:48.052Z,5.20
2022-10-19T08:52:45.797Z,7.40
2022-10-19T09:03:37.667Z,4.43
2022-10-19T09:08:40.672Z,4.40
2022-10-19T09:13:46.979Z,4.90
2022-10-19T09:30:04.571Z,4.47
2022-10-19T09:35:24.050Z,3.73
2022-10-19T09:40:30.969Z,3.67
2022-10-19T09:45:32.236Z,3.53
2022-10-19T09:50:31.472Z,5.90
2022-10-19T09:55:38.964Z,3.50
2022-10-19T10:00:39.871Z,4.90
2022-10-19T10:05:40.706Z,4.10
2022-10-19T10:10:49.715Z,3.40
2022-10-19T10:15:48.469Z,2.43
2022-10-19T10:21:01.662Z,2.10
2022-10-19T10:31:53.871Z,3.10
2022-10-19T10:36:52.088Z,6.53
2022-10-19T10:47:14.312Z,2.80
2022-10-19T10:52:20.761Z,3.77
2022-10-19T11:08:25.570Z,2.73
2022-10-19T11:13:43.128Z,2.87
2022-10-19T11:18:46.671Z,1.60
2022-10-19T11:24:01.070Z,1.60
2022-10-19T11:29:08.636Z,4.00
2022-10-19T11:34:32.087Z,1.40
2022-10-19T11:39:53.543Z,2.33
2022-10-19T11:44:54.534Z,1.03
2022-10-19T11:50:13.778Z,1.67
2022-10-19T11:55:28.503Z,1.37
2022-10-19T12:00:38.154Z,2.40
2022-10-19T12:05:53.911Z,2.23
2022-10-19T12:11:19.206Z,1.53
2022-10-19T12:16:13.627Z,1.70
2022-10-19T12:21:23.509Z,2.90
2022-10-19T12:26:22.005Z,0.83
2022-10-19T12:31:15.244Z,1.80
2022-10-19T12:36:36.345Z,3.20
2022-10-19T12:41:53.481Z,1.17
2022-10-19T12:46:52.984Z,0.97
2022-10-19T12:51:47.784Z,0.80
2022-10-19T12:56:52.055Z,0.90
2022-10-19T13:01:45.556Z,1.50
2022-10-19T13:06:43.037Z,1.30
2022-10-19T13:12:01.282Z,0.97
2022-10-19T13:17:04.459Z,1.80
2022-10-19T13:22:23.265Z,2.90
2022-10-19T13:27:26.432Z,1.70
2022-10-19T13:37:34.903Z,2.10
2022-10-19T13:42:29.399Z,0.90
2022-10-19T13:47:33.998Z,0.67
2022-10-19T13:52:59.051Z,0.90
2022-10-19T13:58:26.339Z,1.77
2022-10-19T14:03:43.809Z,1.60
2022-10-19T14:09:26.439Z,0.70
2022-10-19T14:14:22.498Z,1.23
2022-10-19T14:19:27.465Z,0.80
2022-10-19T14:24:30.682Z,1.80
2022-10-19T14:29:23.618Z,2.83
2022-10-19T14:34:16.879Z,2.83
2022-10-19T14:39:30.116Z,2.53
2022-10-19T14:44:38.797Z,0.67
2022-10-19T14:49:31.941Z,1.63
2022-10-19T14:54:42.222Z,0.67
2022-10-19T15:00:02.629Z,2.53
2022-10-19T15:05:00.770Z,0.77
2022-10-19T15:10:01.373Z,1.10
2022-10-19T15:14:55.880Z,1.97
2022-10-19T15:19:51.154Z,1.47
2022-10-19T15:24:58.208Z,1.00
2022-10-19T15:30:23.490Z,1.50
2022-10-19T15:35:32.779Z,2.97
2022-10-19T15:45:39.316Z,2.07
2022-10-19T15:50:37.608Z,1.00
2022-10-19T15:55:30.631Z,1.00
2022-10-19T16:00:23.316Z,2.73
2022-10-19T16:05:18.970Z,1.30
2022-10-19T16:10:45.583Z,1.37
2022-10-19T16:15:43.721Z,3.03
2022-10-19T16:20:42.191Z,1.13
2022-10-19T16:26:39.463Z,1.30
2022-10-19T16:31:34.001Z,2.40
2022-10-19T16:36:26.928Z,4.67
2022-10-19T16:41:19.826Z,3.80
2022-10-19T16:46:12.871Z,2.53
2022-10-19T16:51:16.054Z,6.67
2022-10-19T16:56:23.220Z,3.23
2022-10-19T17:01:25.239Z,6.63
2022-10-19T17:06:19.657Z,2.90
2022-10-19T17:11:28.578Z,2.77
2022-10-19T17:16:24.056Z,1.83
2022-10-19T17:21:23.840Z,3.47
2022-10-19T17:26:20.109Z,7.63
2022-10-19T17:31:17.574Z,3.97
2022-10-19T17:36:19.980Z,5.60
2022-10-19T17:41:22.060Z,4.63
2022-10-19T17:46:20.464Z,8.03
2022-10-19T17:51:31.572Z,9.70
2022-10-19T17:56:27.027Z,5.00
2022-10-19T18:06:31.956Z,4.30
2022-10-19T18:11:36.036Z,2.67
2022-10-19T18:16:38.983Z,3.17
2022-10-19T18:22:46.981Z,3.50
2022-10-19T18:27:40.892Z,2.50
2022-10-19T18:32:34.378Z,4.43
2022-10-19T18:37:28.810Z,4.27
2022-10-19T18:42:23.924Z,2.67
2022-10-19T18:47:17.255Z,5.70
2022-10-19T18:52:17.331Z,3.40
2022-10-19T18:57:11.495Z,4.07
2022-10-19T19:02:07.852Z,5.00
2022-10-19T19:07:06.012Z,10.10
2022-10-19T19:12:01.350Z,6.07
2022-10-19T19:16:54.473Z,6.17
2022-10-19T19:21:51.531Z,4.03
2022-10-19T19:26:51.107Z,7.77
2022-10-19T19:31:52.199Z,5.40
2022-10-19T19:36:50.512Z,4.90
2022-10-19T19:41:49.082Z,6.00
2022-10-19T19:46:43.316Z,6.70
2022-10-19T19:51:36.133Z,8.73
2022-10-19T19:56:33.299Z,3.50
2022-10-19T20:01:33.101Z,9.53
2022-10-19T20:06:27.450Z,5.73
2022-10-19T20:11:21.423Z,4.87
2022-10-19T20:16:22.667Z,5.03
2022-10-19T20:21:23.992Z,8.27
2022-10-19T20:26:25.955Z,4.23
2022-10-19T20:31:18.912Z,4.87
2022-10-19T20:36:23.994Z,6.27
2022-10-19T20:41:18.558Z,4.83
2022-10-19T20:46:24.258Z,5.40
2022-10-19T20:51:31.931Z,5.03
2022-10-19T20:56:28.169Z,6.13
2022-10-19T21:01:23.999Z,4.97
2022-10-19T21:12:49.956Z,4.57
2022-10-19T22:50:33.934Z,4.87
2022-10-19T22:55:39.854Z,4.53
2022-10-19T23:11:22.857Z,6.27
2022-10-19T23:16:17.070Z,5.50
2022-10-19T23:21:15.834Z,5.35
2022-10-19T23:26:18.847Z,5.13
2022-10-19T23:31:27.140Z,5.37
2022-10-19T23:36:35.659Z,5.43
2022-10-19T23:42:01.097Z,5.50
2022-10-19T23:47:03.889Z,4.47
2022-10-19T23:57:42.361Z,5.97
